sensor_id;sensor_type;location;lat;lon;timestamp;temperature;humidity
12303;DHT22;6214;48.012;7.862;2023-12-22T00:02:18;8.50;99.90
12303;DHT22;6214;48.012;7.862;2023-12-22T00:04:44;8.50;99.90
12303;DHT22;6214;48.012;7.862;2023-12-22T00:07:11;8.50;99.90
12303;DHT22;6214;48.012;7.862;2023-12-22T00:09:38;8.50;99.90
12303;DHT22;6214;48.012;7.862;2023-12-22T00:12:05;8.50;99.90
12303;DHT22;6214;48.012;7.862;2023-12-22T00:14:32;8.40;99.90
12303;DHT22;6214;48.012;7.862;2023-12-22T00:16:58;8.60;99.90
12303;DHT22;6214;48.012;7.862;2023-12-22T00:19:25;8.60;99.90
12303;DHT22;6214;48.012;7.862;2023-12-22T00:21:52;8.60;99.90
12303;DHT22;6214;48.012;7.862;2023-12-22T00:24:19;8.60;99.90
12303;DHT22;6214;48.012;7.862;2023-12-22T00:26:46;8.60;99.90
12303;DHT22;6214;48.012;7.862;2023-12-22T00:29:12;8.50;99.90
12303;DHT22;6214;48.012;7.862;2023-12-22T00:31:39;8.50;99.90
12303;DHT22;6214;48.012;7.862;2023-12-22T00:34:06;8.50;99.90
12303;DHT22;6214;48.012;7.862;2023-12-22T00:36:32;8.50;99.90
12303;DHT22;6214;48.012;7.862;2023-12-22T00:38:59;8.60;99.90
12303;DHT22;6214;48.012;7.862;2023-12-22T00:41:26;8.50;99.90
12303;DHT22;6214;48.012;7.862;2023-12-22T00:43:53;8.60;99.90
12303;DHT22;6214;48.012;7.862;2023-12-22T00:46:19;8.50;99.90
12303;DHT22;6214;48.012;7.862;2023-12-22T00:48:47;8.50;99.90
12303;DHT22;6214;48.012;7.862;2023-12-22T00:51:13;8.50;99.90
12303;DHT22;6214;48.012;7.862;2023-12-22T00:53:40;8.60;99.90
12303;DHT22;6214;48.012;7.862;2023-12-22T00:56:07;8.70;99.90
12303;DHT22;6214;48.012;7.862;2023-12-22T00:58:33;8.50;99.90
12303;DHT22;6214;48.012;7.862;2023-12-22T01:01:00;8.50;99.90
12303;DHT22;6214;48.012;7.862;2023-12-22T01:03:27;8.50;99.90
12303;DHT22;6214;48.012;7.862;2023-12-22T01:05:54;8.40;99.90
12303;DHT22;6214;48.012;7.862;2023-12-22T01:08:21;8.40;99.90
12303;DHT22;6214;48.012;7.862;2023-12-22T01:10:48;8.30;99.90
12303;DHT22;6214;48.012;7.862;2023-12-22T01:13:15;8.20;99.90
12303;DHT22;6214;48.012;7.862;2023-12-22T01:15:41;8.20;99.90
12303;DHT22;6214;48.012;7.862;2023-12-22T01:18:10;8.20;99.90
12303;DHT22;6214;48.012;7.862;2023-12-22T01:20:38;8.10;99.90
12303;DHT22;6214;48.012;7.862;2023-12-22T01:23:04;8.00;99.90
12303;DHT22;6214;48.012;7.862;2023-12-22T01:25:31;8.00;99.90
12303;DHT22;6214;48.012;7.862;2023-12-22T01:27:58;8.00;99.90
12303;DHT22;6214;48.012;7.862;2023-12-22T01:30:27;7.90;99.90
12303;DHT22;6214;48.012;7.862;2023-12-22T01:32:54;8.00;99.90
12303;DHT22;6214;48.012;7.862;2023-12-22T01:35:21;7.90;99.90
12303;DHT22;6214;48.012;7.862;2023-12-22T01:37:48;7.90;99.90
12303;DHT22;6214;48.012;7.862;2023-12-22T01:40:16;8.00;99.90
12303;DHT22;6214;48.012;7.862;2023-12-22T01:42:43;8.10;99.90
12303;DHT22;6214;48.012;7.862;2023-12-22T01:45:10;8.10;99.90
12303;DHT22;6214;48.012;7.862;2023-12-22T01:47:37;8.10;99.90
12303;DHT22;6214;48.012;7.862;2023-12-22T01:50:06;8.10;99.90
12303;DHT22;6214;48.012;7.862;2023-12-22T01:52:33;8.10;99.90
12303;DHT22;6214;48.012;7.862;2023-12-22T01:55:00;8.10;99.90
12303;DHT22;6214;48.012;7.862;2023-12-22T01:57:27;8.20;99.90
12303;DHT22;6214;48.012;7.862;2023-12-22T01:59:54;8.10;99.90
12303;DHT22;6214;48.012;7.862;2023-12-22T02:02:21;8.10;99.90
12303;DHT22;6214;48.012;7.862;2023-12-22T02:04:49;8.30;99.90
12303;DHT22;6214;48.012;7.862;2023-12-22T02:07:16;8.20;99.90
12303;DHT22;6214;48.012;7.862;2023-12-22T02:09:43;8.20;99.90
12303;DHT22;6214;48.012;7.862;2023-12-22T02:12:09;8.20;99.90
12303;DHT22;6214;48.012;7.862;2023-12-22T02:14:36;8.30;99.90
12303;DHT22;6214;48.012;7.862;2023-12-22T02:19:58;8.10;99.90
12303;DHT22;6214;48.012;7.862;2023-12-22T02:22:28;8.10;99.90
12303;DHT22;6214;48.012;7.862;2023-12-22T02:24:55;8.20;99.90
12303;DHT22;6214;48.012;7.862;2023-12-22T02:27:33;8.20;99.90
12303;DHT22;6214;48.012;7.862;2023-12-22T02:30:11;8.20;99.90
12303;DHT22;6214;48.012;7.862;2023-12-22T02:32:42;8.20;99.90
12303;DHT22;6214;48.012;7.862;2023-12-22T02:35:14;8.10;99.90
12303;DHT22;6214;48.012;7.862;2023-12-22T02:37:42;8.20;99.90
12303;DHT22;6214;48.012;7.862;2023-12-22T02:40:09;8.20;99.90
12303;DHT22;6214;48.012;7.862;2023-12-22T02:42:38;8.20;99.90
12303;DHT22;6214;48.012;7.862;2023-12-22T02:45:15;8.10;99.90
12303;DHT22;6214;48.012;7.862;2023-12-22T02:47:42;8.00;99.90
12303;DHT22;6214;48.012;7.862;2023-12-22T02:50:09;8.00;99.90
12303;DHT22;6214;48.012;7.862;2023-12-22T02:52:37;7.90;99.90
12303;DHT22;6214;48.012;7.862;2023-12-22T02:55:04;7.90;99.90
12303;DHT22;6214;48.012;7.862;2023-12-22T02:57:31;7.90;99.90
12303;DHT22;6214;48.012;7.862;2023-12-22T02:59:58;7.90;99.90
12303;DHT22;6214;48.012;7.862;2023-12-22T03:02:25;7.80;99.90
12303;DHT22;6214;48.012;7.862;2023-12-22T03:04:51;7.60;99.90
12303;DHT22;6214;48.012;7.862;2023-12-22T03:07:18;7.50;99.90
12303;DHT22;6214;48.012;7.862;2023-12-22T03:09:45;7.50;99.90
12303;DHT22;6214;48.012;7.862;2023-12-22T03:12:12;7.60;99.90
12303;DHT22;6214;48.012;7.862;2023-12-22T03:14:39;7.70;99.90
12303;DHT22;6214;48.012;7.862;2023-12-22T03:17:06;7.70;99.90
12303;DHT22;6214;48.012;7.862;2023-12-22T03:19:33;7.50;99.90
12303;DHT22;6214;48.012;7.862;2023-12-22T03:22:00;7.30;99.90
12303;DHT22;6214;48.012;7.862;2023-12-22T03:24:28;7.40;99.90
12303;DHT22;6214;48.012;7.862;2023-12-22T03:26:56;7.20;99.90
12303;DHT22;6214;48.012;7.862;2023-12-22T03:29:23;7.10;99.90
12303;DHT22;6214;48.012;7.862;2023-12-22T03:31:49;7.10;99.90
12303;DHT22;6214;48.012;7.862;2023-12-22T03:34:16;7.10;99.90
12303;DHT22;6214;48.012;7.862;2023-12-22T03:36:43;7.10;99.90
12303;DHT22;6214;48.012;7.862;2023-12-22T03:39:15;7.20;99.90
12303;DHT22;6214;48.012;7.862;2023-12-22T03:41:42;7.20;99.90
12303;DHT22;6214;48.012;7.862;2023-12-22T03:44:09;7.40;99.90
12303;DHT22;6214;48.012;7.862;2023-12-22T03:46:36;7.30;99.90
12303;DHT22;6214;48.012;7.862;2023-12-22T03:49:03;7.40;99.90
12303;DHT22;6214;48.012;7.862;2023-12-22T03:51:30;7.30;99.90
12303;DHT22;6214;48.012;7.862;2023-12-22T03:53:57;7.30;99.90
12303;DHT22;6214;48.012;7.862;2023-12-22T03:56:24;7.40;99.90
12303;DHT22;6214;48.012;7.862;2023-12-22T03:58:50;7.50;99.90
12303;DHT22;6214;48.012;7.862;2023-12-22T04:01:17;7.60;99.90
12303;DHT22;6214;48.012;7.862;2023-12-22T04:03:44;7.60;99.90
12303;DHT22;6214;48.012;7.862;2023-12-22T04:06:11;7.60;99.90
12303;DHT22;6214;48.012;7.862;2023-12-22T04:08:38;7.60;99.90
12303;DHT22;6214;48.012;7.862;2023-12-22T04:11:05;7.60;99.90
12303;DHT22;6214;48.012;7.862;2023-12-22T04:13:31;7.60;99.90
12303;DHT22;6214;48.012;7.862;2023-12-22T04:15:58;7.60;99.90
12303;DHT22;6214;48.012;7.862;2023-12-22T04:18:25;7.60;99.90
12303;DHT22;6214;48.012;7.862;2023-12-22T04:20:52;7.60;99.90
12303;DHT22;6214;48.012;7.862;2023-12-22T04:23:21;7.60;99.90
12303;DHT22;6214;48.012;7.862;2023-12-22T04:25:48;7.60;99.90
12303;DHT22;6214;48.012;7.862;2023-12-22T04:28:15;7.50;99.90
12303;DHT22;6214;48.012;7.862;2023-12-22T04:30:42;7.50;99.90
12303;DHT22;6214;48.012;7.862;2023-12-22T04:33:09;7.60;99.90
12303;DHT22;6214;48.012;7.862;2023-12-22T04:35:36;7.50;99.90
12303;DHT22;6214;48.012;7.862;2023-12-22T04:38:03;7.40;99.90
12303;DHT22;6214;48.012;7.862;2023-12-22T04:40:30;7.40;99.90
12303;DHT22;6214;48.012;7.862;2023-12-22T04:42:56;7.40;99.90
12303;DHT22;6214;48.012;7.862;2023-12-22T04:45:23;7.50;99.90
12303;DHT22;6214;48.012;7.862;2023-12-22T04:47:50;7.50;99.90
12303;DHT22;6214;48.012;7.862;2023-12-22T04:50:17;7.40;99.90
12303;DHT22;6214;48.012;7.862;2023-12-22T04:52:44;7.40;99.90
12303;DHT22;6214;48.012;7.862;2023-12-22T04:55:11;7.40;99.90
12303;DHT22;6214;48.012;7.862;2023-12-22T04:57:37;7.40;99.90
12303;DHT22;6214;48.012;7.862;2023-12-22T05:00:05;7.40;99.90
12303;DHT22;6214;48.012;7.862;2023-12-22T05:02:31;7.40;99.90
12303;DHT22;6214;48.012;7.862;2023-12-22T05:04:58;7.50;99.90
12303;DHT22;6214;48.012;7.862;2023-12-22T05:07:25;7.50;99.90
12303;DHT22;6214;48.012;7.862;2023-12-22T05:09:52;7.50;99.90
12303;DHT22;6214;48.012;7.862;2023-12-22T05:12:21;7.50;99.90
12303;DHT22;6214;48.012;7.862;2023-12-22T05:14:47;7.60;99.90
12303;DHT22;6214;48.012;7.862;2023-12-22T05:17:14;7.60;99.90
12303;DHT22;6214;48.012;7.862;2023-12-22T05:19:41;7.60;99.90
12303;DHT22;6214;48.012;7.862;2023-12-22T05:22:08;7.60;99.90
12303;DHT22;6214;48.012;7.862;2023-12-22T05:24:34;7.50;99.90
12303;DHT22;6214;48.012;7.862;2023-12-22T05:27:02;7.50;99.90
12303;DHT22;6214;48.012;7.862;2023-12-22T05:29:29;7.40;99.90
12303;DHT22;6214;48.012;7.862;2023-12-22T05:31:56;7.50;99.90
12303;DHT22;6214;48.012;7.862;2023-12-22T05:34:22;7.50;99.90
12303;DHT22;6214;48.012;7.862;2023-12-22T05:36:49;7.50;99.90
12303;DHT22;6214;48.012;7.862;2023-12-22T05:39:16;7.60;99.90
12303;DHT22;6214;48.012;7.862;2023-12-22T05:41:43;7.60;99.90
12303;DHT22;6214;48.012;7.862;2023-12-22T05:44:10;7.50;99.90
12303;DHT22;6214;48.012;7.862;2023-12-22T05:46:37;7.60;99.90
12303;DHT22;6214;48.012;7.862;2023-12-22T05:49:07;8.10;99.90
12303;DHT22;6214;48.012;7.862;2023-12-22T05:51:38;7.60;99.90
12303;DHT22;6214;48.012;7.862;2023-12-22T05:54:08;7.60;99.90
12303;DHT22;6214;48.012;7.862;2023-12-22T05:56:35;7.60;99.90
12303;DHT22;6214;48.012;7.862;2023-12-22T05:59:01;7.60;99.90
12303;DHT22;6214;48.012;7.862;2023-12-22T06:01:29;7.60;99.90
12303;DHT22;6214;48.012;7.862;2023-12-22T06:03:56;7.60;99.90
12303;DHT22;6214;48.012;7.862;2023-12-22T06:06:23;7.60;99.90
12303;DHT22;6214;48.012;7.862;2023-12-22T06:08:50;7.60;99.90
12303;DHT22;6214;48.012;7.862;2023-12-22T06:11:16;7.50;99.90
12303;DHT22;6214;48.012;7.862;2023-12-22T06:13:43;7.70;99.90
12303;DHT22;6214;48.012;7.862;2023-12-22T06:16:12;7.60;99.90
12303;DHT22;6214;48.012;7.862;2023-12-22T06:18:40;7.60;99.90
12303;DHT22;6214;48.012;7.862;2023-12-22T06:21:09;7.70;99.90
12303;DHT22;6214;48.012;7.862;2023-12-22T06:23:36;7.60;99.90
12303;DHT22;6214;48.012;7.862;2023-12-22T06:26:10;7.60;99.90
12303;DHT22;6214;48.012;7.862;2023-12-22T06:28:37;7.60;99.90
12303;DHT22;6214;48.012;7.862;2023-12-22T06:31:07;7.70;99.90
12303;DHT22;6214;48.012;7.862;2023-12-22T06:33:34;7.70;99.90
12303;DHT22;6214;48.012;7.862;2023-12-22T06:36:00;7.70;99.90
12303;DHT22;6214;48.012;7.862;2023-12-22T06:38:27;7.70;99.90
12303;DHT22;6214;48.012;7.862;2023-12-22T06:40:54;7.70;99.90
12303;DHT22;6214;48.012;7.862;2023-12-22T06:43:22;7.70;99.90
12303;DHT22;6214;48.012;7.862;2023-12-22T06:45:49;7.60;99.90
12303;DHT22;6214;48.012;7.862;2023-12-22T06:48:16;7.70;99.90
12303;DHT22;6214;48.012;7.862;2023-12-22T06:50:43;7.70;99.90
12303;DHT22;6214;48.012;7.862;2023-12-22T06:53:12;7.60;99.90
12303;DHT22;6214;48.012;7.862;2023-12-22T06:55:51;7.60;99.90
12303;DHT22;6214;48.012;7.862;2023-12-22T06:58:18;7.60;99.90
12303;DHT22;6214;48.012;7.862;2023-12-22T07:00:47;7.60;99.90
12303;DHT22;6214;48.012;7.862;2023-12-22T07:03:14;7.70;99.90
12303;DHT22;6214;48.012;7.862;2023-12-22T07:05:43;7.70;99.90
12303;DHT22;6214;48.012;7.862;2023-12-22T07:08:11;7.60;99.90
12303;DHT22;6214;48.012;7.862;2023-12-22T07:10:38;7.60;99.90
12303;DHT22;6214;48.012;7.862;2023-12-22T07:13:04;7.60;99.90
12303;DHT22;6214;48.012;7.862;2023-12-22T07:15:32;7.60;99.90
12303;DHT22;6214;48.012;7.862;2023-12-22T07:17:59;7.60;99.90
12303;DHT22;6214;48.012;7.862;2023-12-22T07:20:26;7.60;99.90
12303;DHT22;6214;48.012;7.862;2023-12-22T07:22:52;7.70;99.90
12303;DHT22;6214;48.012;7.862;2023-12-22T07:25:22;7.70;99.90
12303;DHT22;6214;48.012;7.862;2023-12-22T07:27:49;7.70;99.90
12303;DHT22;6214;48.012;7.862;2023-12-22T07:30:16;7.70;99.90
12303;DHT22;6214;48.012;7.862;2023-12-22T07:32:44;7.70;99.90
12303;DHT22;6214;48.012;7.862;2023-12-22T07:35:14;7.70;99.90
12303;DHT22;6214;48.012;7.862;2023-12-22T07:37:42;7.70;99.90
12303;DHT22;6214;48.012;7.862;2023-12-22T07:40:10;7.70;99.90
12303;DHT22;6214;48.012;7.862;2023-12-22T07:42:37;7.70;99.90
12303;DHT22;6214;48.012;7.862;2023-12-22T07:45:05;7.70;99.90
12303;DHT22;6214;48.012;7.862;2023-12-22T07:47:32;7.60;99.90
12303;DHT22;6214;48.012;7.862;2023-12-22T07:50:00;7.60;99.90
12303;DHT22;6214;48.012;7.862;2023-12-22T07:52:29;7.60;99.90
12303;DHT22;6214;48.012;7.862;2023-12-22T07:54:56;7.60;99.90
12303;DHT22;6214;48.012;7.862;2023-12-22T07:57:23;7.60;99.90
12303;DHT22;6214;48.012;7.862;2023-12-22T07:59:50;7.60;99.90
12303;DHT22;6214;48.012;7.862;2023-12-22T08:02:16;7.60;99.90
12303;DHT22;6214;48.012;7.862;2023-12-22T08:04:43;7.70;99.90
12303;DHT22;6214;48.012;7.862;2023-12-22T08:07:10;7.70;99.90
12303;DHT22;6214;48.012;7.862;2023-12-22T08:09:37;7.60;99.90
12303;DHT22;6214;48.012;7.862;2023-12-22T08:12:04;7.70;99.90
12303;DHT22;6214;48.012;7.862;2023-12-22T08:14:31;7.60;99.90
12303;DHT22;6214;48.012;7.862;2023-12-22T08:16:58;7.80;99.90
12303;DHT22;6214;48.012;7.862;2023-12-22T08:19:25;7.80;99.90
12303;DHT22;6214;48.012;7.862;2023-12-22T08:21:56;7.80;99.90
12303;DHT22;6214;48.012;7.862;2023-12-22T08:24:24;7.90;99.90
12303;DHT22;6214;48.012;7.862;2023-12-22T08:26:51;7.90;99.90
12303;DHT22;6214;48.012;7.862;2023-12-22T08:29:18;7.90;99.90
12303;DHT22;6214;48.012;7.862;2023-12-22T08:31:48;7.90;99.90
12303;DHT22;6214;48.012;7.862;2023-12-22T08:34:15;8.00;99.90
12303;DHT22;6214;48.012;7.862;2023-12-22T08:36:42;8.00;99.90
12303;DHT22;6214;48.012;7.862;2023-12-22T08:39:10;7.90;99.90
12303;DHT22;6214;48.012;7.862;2023-12-22T08:41:37;8.00;99.90
12303;DHT22;6214;48.012;7.862;2023-12-22T08:44:05;8.00;99.90
12303;DHT22;6214;48.012;7.862;2023-12-22T08:46:33;8.00;99.90
12303;DHT22;6214;48.012;7.862;2023-12-22T08:49:00;8.00;99.90
12303;DHT22;6214;48.012;7.862;2023-12-22T08:51:27;8.00;99.90
12303;DHT22;6214;48.012;7.862;2023-12-22T08:53:54;8.10;99.90
12303;DHT22;6214;48.012;7.862;2023-12-22T08:56:22;8.00;99.90
12303;DHT22;6214;48.012;7.862;2023-12-22T08:58:51;8.00;99.90
12303;DHT22;6214;48.012;7.862;2023-12-22T09:01:19;8.00;99.90
12303;DHT22;6214;48.012;7.862;2023-12-22T09:03:46;7.90;99.90
12303;DHT22;6214;48.012;7.862;2023-12-22T09:06:17;8.00;99.90
12303;DHT22;6214;48.012;7.862;2023-12-22T09:08:44;7.90;99.90
12303;DHT22;6214;48.012;7.862;2023-12-22T09:11:12;7.90;99.90
12303;DHT22;6214;48.012;7.862;2023-12-22T09:13:39;7.90;99.90
12303;DHT22;6214;48.012;7.862;2023-12-22T09:16:06;7.90;99.90
12303;DHT22;6214;48.012;7.862;2023-12-22T09:18:33;7.90;99.90
12303;DHT22;6214;48.012;7.862;2023-12-22T09:21:01;8.00;99.90
12303;DHT22;6214;48.012;7.862;2023-12-22T09:23:29;8.00;99.90
12303;DHT22;6214;48.012;7.862;2023-12-22T09:25:56;8.10;99.90
12303;DHT22;6214;48.012;7.862;2023-12-22T09:28:22;8.20;99.90
12303;DHT22;6214;48.012;7.862;2023-12-22T09:30:49;8.30;99.90
12303;DHT22;6214;48.012;7.862;2023-12-22T09:33:16;8.30;99.90
12303;DHT22;6214;48.012;7.862;2023-12-22T09:35:43;8.30;99.90
12303;DHT22;6214;48.012;7.862;2023-12-22T09:38:11;8.30;99.90
12303;DHT22;6214;48.012;7.862;2023-12-22T09:40:39;8.40;99.90
12303;DHT22;6214;48.012;7.862;2023-12-22T09:43:06;8.30;99.90
12303;DHT22;6214;48.012;7.862;2023-12-22T09:45:34;8.40;99.90
12303;DHT22;6214;48.012;7.862;2023-12-22T09:48:01;8.40;99.90
12303;DHT22;6214;48.012;7.862;2023-12-22T09:50:29;8.40;99.90
12303;DHT22;6214;48.012;7.862;2023-12-22T09:52:56;8.40;99.90
12303;DHT22;6214;48.012;7.862;2023-12-22T09:55:25;8.40;99.90
12303;DHT22;6214;48.012;7.862;2023-12-22T09:57:54;8.40;99.90
12303;DHT22;6214;48.012;7.862;2023-12-22T10:00:21;8.40;99.90
12303;DHT22;6214;48.012;7.862;2023-12-22T10:02:49;8.50;99.90
12303;DHT22;6214;48.012;7.862;2023-12-22T10:05:16;8.50;99.90
12303;DHT22;6214;48.012;7.862;2023-12-22T10:07:46;8.50;99.90
12303;DHT22;6214;48.012;7.862;2023-12-22T10:10:14;8.60;99.90
12303;DHT22;6214;48.012;7.862;2023-12-22T10:12:44;8.50;99.90
12303;DHT22;6214;48.012;7.862;2023-12-22T10:15:13;8.50;99.90
12303;DHT22;6214;48.012;7.862;2023-12-22T10:17:41;8.50;99.90
12303;DHT22;6214;48.012;7.862;2023-12-22T10:20:08;8.50;99.90
12303;DHT22;6214;48.012;7.862;2023-12-22T10:22:35;8.50;99.90
12303;DHT22;6214;48.012;7.862;2023-12-22T10:25:02;8.60;99.90
12303;DHT22;6214;48.012;7.862;2023-12-22T10:27:29;8.60;99.90
12303;DHT22;6214;48.012;7.862;2023-12-22T10:29:58;8.70;99.90
12303;DHT22;6214;48.012;7.862;2023-12-22T10:32:25;8.60;99.90
12303;DHT22;6214;48.012;7.862;2023-12-22T10:34:53;8.60;99.90
12303;DHT22;6214;48.012;7.862;2023-12-22T10:37:20;8.60;99.90
12303;DHT22;6214;48.012;7.862;2023-12-22T10:39:52;8.60;99.90
12303;DHT22;6214;48.012;7.862;2023-12-22T10:42:19;8.70;99.90
12303;DHT22;6214;48.012;7.862;2023-12-22T10:44:46;8.60;99.90
12303;DHT22;6214;48.012;7.862;2023-12-22T10:47:17;8.60;99.90
12303;DHT22;6214;48.012;7.862;2023-12-22T10:49:46;8.60;99.90
12303;DHT22;6214;48.012;7.862;2023-12-22T10:52:17;8.60;99.90
12303;DHT22;6214;48.012;7.862;2023-12-22T10:54:50;8.50;99.90
12303;DHT22;6214;48.012;7.862;2023-12-22T10:57:17;8.50;99.90
12303;DHT22;6214;48.012;7.862;2023-12-22T10:59:47;8.50;99.90
12303;DHT22;6214;48.012;7.862;2023-12-22T11:02:27;8.50;99.90
12303;DHT22;6214;48.012;7.862;2023-12-22T11:04:57;8.50;99.90
12303;DHT22;6214;48.012;7.862;2023-12-22T11:07:24;8.50;99.90
12303;DHT22;6214;48.012;7.862;2023-12-22T11:09:53;8.50;99.90
12303;DHT22;6214;48.012;7.862;2023-12-22T11:12:23;8.50;99.90
12303;DHT22;6214;48.012;7.862;2023-12-22T11:14:51;8.50;99.90
12303;DHT22;6214;48.012;7.862;2023-12-22T11:17:22;8.50;99.90
12303;DHT22;6214;48.012;7.862;2023-12-22T11:19:50;8.50;99.90
12303;DHT22;6214;48.012;7.862;2023-12-22T11:22:18;8.50;99.90
12303;DHT22;6214;48.012;7.862;2023-12-22T11:24:47;8.50;99.90
12303;DHT22;6214;48.012;7.862;2023-12-22T11:27:19;8.60;99.90
12303;DHT22;6214;48.012;7.862;2023-12-22T11:29:50;8.60;99.90
12303;DHT22;6214;48.012;7.862;2023-12-22T11:32:18;8.70;99.90
12303;DHT22;6214;48.012;7.862;2023-12-22T11:34:46;8.60;99.90
12303;DHT22;6214;48.012;7.862;2023-12-22T11:37:15;8.60;99.90
12303;DHT22;6214;48.012;7.862;2023-12-22T11:39:43;8.70;99.90
12303;DHT22;6214;48.012;7.862;2023-12-22T11:42:31;8.70;99.90
12303;DHT22;6214;48.012;7.862;2023-12-22T11:45:00;8.70;99.90
12303;DHT22;6214;48.012;7.862;2023-12-22T11:47:27;8.70;99.90
12303;DHT22;6214;48.012;7.862;2023-12-22T11:49:55;8.80;99.90
12303;DHT22;6214;48.012;7.862;2023-12-22T11:52:26;8.80;99.90
12303;DHT22;6214;48.012;7.862;2023-12-22T11:54:56;8.90;99.90
12303;DHT22;6214;48.012;7.862;2023-12-22T12:02:29;8.80;99.90
12303;DHT22;6214;48.012;7.862;2023-12-22T12:04:58;8.90;99.90
12303;DHT22;6214;48.012;7.862;2023-12-22T12:07:41;8.80;99.90
12303;DHT22;6214;48.012;7.862;2023-12-22T12:10:34;8.90;99.90
12303;DHT22;6214;48.012;7.862;2023-12-22T12:13:10;8.90;99.90
12303;DHT22;6214;48.012;7.862;2023-12-22T12:15:38;8.90;99.90
12303;DHT22;6214;48.012;7.862;2023-12-22T12:18:05;9.00;99.90
12303;DHT22;6214;48.012;7.862;2023-12-22T12:20:33;9.00;99.90
12303;DHT22;6214;48.012;7.862;2023-12-22T12:23:03;9.10;99.90
12303;DHT22;6214;48.012;7.862;2023-12-22T12:25:34;9.10;99.90
12303;DHT22;6214;48.012;7.862;2023-12-22T12:28:07;9.00;99.90
12303;DHT22;6214;48.012;7.862;2023-12-22T12:30:35;9.10;99.90
12303;DHT22;6214;48.012;7.862;2023-12-22T12:33:09;9.10;99.90
12303;DHT22;6214;48.012;7.862;2023-12-22T12:35:38;9.20;99.90
12303;DHT22;6214;48.012;7.862;2023-12-22T12:38:11;9.30;99.90
12303;DHT22;6214;48.012;7.862;2023-12-22T12:40:40;9.20;99.90
12303;DHT22;6214;48.012;7.862;2023-12-22T12:43:08;9.20;99.90
12303;DHT22;6214;48.012;7.862;2023-12-22T12:45:35;9.30;99.90
12303;DHT22;6214;48.012;7.862;2023-12-22T12:48:02;9.30;99.90
12303;DHT22;6214;48.012;7.862;2023-12-22T12:50:33;9.30;99.90
12303;DHT22;6214;48.012;7.862;2023-12-22T12:53:00;9.40;99.90
12303;DHT22;6214;48.012;7.862;2023-12-22T12:55:29;9.30;99.90
12303;DHT22;6214;48.012;7.862;2023-12-22T12:57:56;9.30;99.90
12303;DHT22;6214;48.012;7.862;2023-12-22T13:00:27;9.30;99.90
12303;DHT22;6214;48.012;7.862;2023-12-22T13:02:55;9.30;99.90
12303;DHT22;6214;48.012;7.862;2023-12-22T13:05:23;9.30;99.90
12303;DHT22;6214;48.012;7.862;2023-12-22T13:07:50;9.30;99.90
12303;DHT22;6214;48.012;7.862;2023-12-22T13:10:25;9.20;99.90
12303;DHT22;6214;48.012;7.862;2023-12-22T13:12:52;9.30;99.90
12303;DHT22;6214;48.012;7.862;2023-12-22T13:15:21;9.30;99.90
12303;DHT22;6214;48.012;7.862;2023-12-22T13:17:48;9.30;99.90
12303;DHT22;6214;48.012;7.862;2023-12-22T13:20:15;9.30;99.90
12303;DHT22;6214;48.012;7.862;2023-12-22T13:22:43;9.30;99.90
12303;DHT22;6214;48.012;7.862;2023-12-22T13:25:10;9.30;99.90
12303;DHT22;6214;48.012;7.862;2023-12-22T13:27:45;9.30;99.90
12303;DHT22;6214;48.012;7.862;2023-12-22T13:30:14;9.30;99.90
12303;DHT22;6214;48.012;7.862;2023-12-22T13:32:42;9.40;99.90
12303;DHT22;6214;48.012;7.862;2023-12-22T13:35:09;9.30;99.90
12303;DHT22;6214;48.012;7.862;2023-12-22T13:37:41;9.40;99.90
12303;DHT22;6214;48.012;7.862;2023-12-22T13:40:09;9.40;99.90
12303;DHT22;6214;48.012;7.862;2023-12-22T13:42:36;9.40;99.90
12303;DHT22;6214;48.012;7.862;2023-12-22T13:45:04;9.40;99.90
12303;DHT22;6214;48.012;7.862;2023-12-22T13:47:40;9.40;99.90
12303;DHT22;6214;48.012;7.862;2023-12-22T13:50:17;9.40;99.90
12303;DHT22;6214;48.012;7.862;2023-12-22T13:52:45;9.30;99.90
12303;DHT22;6214;48.012;7.862;2023-12-22T13:55:12;9.20;99.90
12303;DHT22;6214;48.012;7.862;2023-12-22T13:57:39;9.10;99.90
12303;DHT22;6214;48.012;7.862;2023-12-22T14:02:48;9.20;99.90
12303;DHT22;6214;48.012;7.862;2023-12-22T14:05:16;9.10;99.90
12303;DHT22;6214;48.012;7.862;2023-12-22T14:07:44;9.10;99.90
12303;DHT22;6214;48.012;7.862;2023-12-22T14:10:11;9.20;99.90
12303;DHT22;6214;48.012;7.862;2023-12-22T14:12:38;9.30;99.90
12303;DHT22;6214;48.012;7.862;2023-12-22T14:15:10;9.10;99.90
12303;DHT22;6214;48.012;7.862;2023-12-22T14:17:37;9.20;99.90
12303;DHT22;6214;48.012;7.862;2023-12-22T14:20:05;9.10;99.90
12303;DHT22;6214;48.012;7.862;2023-12-22T14:22:34;9.20;99.90
12303;DHT22;6214;48.012;7.862;2023-12-22T14:25:02;9.20;99.90
12303;DHT22;6214;48.012;7.862;2023-12-22T14:27:28;9.10;99.90
12303;DHT22;6214;48.012;7.862;2023-12-22T14:29:55;9.10;99.90
12303;DHT22;6214;48.012;7.862;2023-12-22T14:32:22;9.10;99.90
12303;DHT22;6214;48.012;7.862;2023-12-22T14:34:49;9.10;99.90
12303;DHT22;6214;48.012;7.862;2023-12-22T14:37:16;9.10;99.90
12303;DHT22;6214;48.012;7.862;2023-12-22T14:39:44;9.00;99.90
12303;DHT22;6214;48.012;7.862;2023-12-22T14:42:14;9.10;99.90
12303;DHT22;6214;48.012;7.862;2023-12-22T14:44:40;9.10;99.90
12303;DHT22;6214;48.012;7.862;2023-12-22T14:47:07;9.00;99.90
12303;DHT22;6214;48.012;7.862;2023-12-22T14:49:37;9.10;99.90
12303;DHT22;6214;48.012;7.862;2023-12-22T14:52:04;9.20;99.90
12303;DHT22;6214;48.012;7.862;2023-12-22T14:54:31;9.20;99.90
12303;DHT22;6214;48.012;7.862;2023-12-22T14:56:57;9.10;99.90
12303;DHT22;6214;48.012;7.862;2023-12-22T14:59:25;9.20;99.90
12303;DHT22;6214;48.012;7.862;2023-12-22T15:01:52;9.20;99.90
12303;DHT22;6214;48.012;7.862;2023-12-22T15:04:18;9.10;99.90
12303;DHT22;6214;48.012;7.862;2023-12-22T15:06:49;9.20;99.90
12303;DHT22;6214;48.012;7.862;2023-12-22T15:09:26;9.20;99.90
12303;DHT22;6214;48.012;7.862;2023-12-22T15:11:53;9.20;99.90
12303;DHT22;6214;48.012;7.862;2023-12-22T15:14:21;9.20;99.90
12303;DHT22;6214;48.012;7.862;2023-12-22T15:16:49;9.20;99.90
12303;DHT22;6214;48.012;7.862;2023-12-22T15:19:18;9.20;99.90
12303;DHT22;6214;48.012;7.862;2023-12-22T15:21:45;9.20;99.90
12303;DHT22;6214;48.012;7.862;2023-12-22T15:24:11;9.30;99.90
12303;DHT22;6214;48.012;7.862;2023-12-22T15:26:38;9.20;99.90
12303;DHT22;6214;48.012;7.862;2023-12-22T15:29:05;9.20;99.90
12303;DHT22;6214;48.012;7.862;2023-12-22T15:31:32;9.20;99.90
12303;DHT22;6214;48.012;7.862;2023-12-22T15:34:03;9.10;99.90
12303;DHT22;6214;48.012;7.862;2023-12-22T15:36:31;9.10;99.90
12303;DHT22;6214;48.012;7.862;2023-12-22T15:38:58;9.20;99.90
12303;DHT22;6214;48.012;7.862;2023-12-22T15:41:30;9.30;99.90
12303;DHT22;6214;48.012;7.862;2023-12-22T15:43:59;9.20;99.90
12303;DHT22;6214;48.012;7.862;2023-12-22T15:46:25;9.30;99.90
12303;DHT22;6214;48.012;7.862;2023-12-22T15:48:52;9.20;99.90
12303;DHT22;6214;48.012;7.862;2023-12-22T15:51:20;9.20;99.90
12303;DHT22;6214;48.012;7.862;2023-12-22T15:53:47;9.20;99.90
12303;DHT22;6214;48.012;7.862;2023-12-22T15:56:14;9.20;99.90
12303;DHT22;6214;48.012;7.862;2023-12-22T15:58:42;9.20;99.90
12303;DHT22;6214;48.012;7.862;2023-12-22T16:01:11;9.20;99.90
12303;DHT22;6214;48.012;7.862;2023-12-22T16:03:39;9.30;99.90
12303;DHT22;6214;48.012;7.862;2023-12-22T16:06:07;9.20;99.90
12303;DHT22;6214;48.012;7.862;2023-12-22T16:08:34;9.20;99.90
12303;DHT22;6214;48.012;7.862;2023-12-22T16:11:03;9.20;99.90
12303;DHT22;6214;48.012;7.862;2023-12-22T16:13:33;9.20;99.90
12303;DHT22;6214;48.012;7.862;2023-12-22T16:16:01;9.20;99.90
12303;DHT22;6214;48.012;7.862;2023-12-22T16:18:28;9.20;99.90